Docena, AL (35060)

7:53 PM CDT on August 31, 2015 (GMT -0500)
Nucor Steel Birmingham | | Change Station
CLOSE
Current Station
Personal Weather Station
Location: Birmingham, AL
Elevation: 562 ft
Nearby Weather Stations

Elev 562 ft 33.55 °N, 86.81 °W | Updated 19 seconds ago

Partly Cloudy
Partly Cloudy
78.8 °F
Feels Like 81 °F
N
0.0
Wind Variable Wind from East
Gusts 1.0 mph

Today
High -- | Low -- °F
--% Chance of Precip.
Yesterday
High -- | Low -- °F
Precip. -- in
6:20 AM 7:14 PM
Waning Gibbous, 92% visible
Pressure 30.06 in
Visibility 10.0 miles
Clouds Few 7000 ft
Scattered Clouds 25000 ft
Heat Index 81 °F
Dew Point 70 °F
Humidity 74%
Rainfall 0.01 in
Snow Depth Not available.
UV 0.0 out of 12
Pollen 8.40 out of 12
Air Quality Not available.
Flu Activity Not available.
METAR KBHM 312353Z 08003KT 10SM FEW070 SCT250 27/21 A3009 RMK AO2 SLP180 T02670206 10289 20261 58002
Pressure 30.06 in
Visibility 10.0 miles
Clouds Few 7000 ft
Scattered Clouds 25000 ft
Heat Index 81 °F
Dew Point 70 °F
Humidity 74%
Rainfall 0.01 in
Snow Depth Not available.
UV 0.0 out of 12
Pollen 8.40 out of 12
Air Quality Not available.
Flu Activity Not available.
METAR KBHM 312353Z 08003KT 10SM FEW070 SCT250 27/21 A3009 RMK AO2 SLP180 T02670206 10289 20261 58002

10-Day Weather Forecast

×

Almanac

Astronomy

Aug. 31, 2015 Rise Set
Actual Time
Civil Twilight
Nautical Twilight
Astronomical Twilight
Moon
Length of Visible Light
Length of Day
Tomorrow will be .
, % of the Moon is Illuminated

Today's Extremes

State Highs State Lows

Community

WunderPhotos

Upload Photos

1,851,411 photos uploaded!

WunderBlogs® & News

Nearby

Air Quality

  Air Quality AQ Index Pollutant
Not available.

Snow Depth

Station Depth Elevation

Earthquake Activity

City Distance Mag. Time & Date
Minimum magnitude displayed is 2.5.

Coastal Water Temperatures

Place Temperature

Stations

Nearby Weather Stations

Station Location Temp. Windchill Dew Point Humidity Wind Precip. Elev Updated Type